Latest Weather Observations for Bellambi

IDN60801

Issued at 8:23 pm EDT Tuesday 26 January 2021 (issued every 10 minutes, with the page automatically refreshed every 10 minutes)

About weather observations | Map of weather stations | Latest weather observations for NSW | Other Formats
Station Details ID: 068228 Name: BELLAMBI AWS Lat: -34.37 Lon: 150.93 Height: 10.0 m
Data from the previous 72 hours. | See also: Recent months at Bellambi
Date/Time
EDT
Temp
°C
App
Temp
°C
Dew
Point
°C
Rel
Hum
%
Delta-T
°C
Wind Press
QNH
hPa
Press
MSL
hPa
Rain since
9am
mm
Dir  Spd
km/h
Gust
km/h
Spd
kts
Gust
kts
26/08:00pm 23.8 25.5 19.3 76 2.9 E 9 11 5 6 - - 0.0
26/07:30pm 24.2 26.4 19.1 73 3.3 NE 6 9 3 5 - - 0.0
26/07:00pm 24.2 25.4 19.1 73 3.3 NW 11 15 6 8 - - 0.0
26/06:30pm 24.4 24.4 19.0 72 3.4 N 17 20 9 11 - - 0.0
26/06:00pm 24.3 24.9 19.4 74 3.1 NNE 15 22 8 12 - - 0.0
26/05:30pm 24.8 25.4 19.4 72 3.5 NNE 15 20 8 11 - - 0.0
26/05:00pm 25.6 25.8 19.3 68 4.0 NE 17 26 9 14 - - 0.0
26/04:30pm 25.6 26.3 18.8 66 4.3 NNE 13 20 7 11 - - 0.0
26/04:00pm 26.0 26.9 19.2 66 4.4 NNE 13 19 7 10 - - 0.0
26/03:30pm 26.6 27.5 19.2 64 4.8 NNE 13 19 7 10 - - 0.0
26/03:00pm 26.0 27.1 19.6 68 4.1 N 13 20 7 11 - - 0.0
26/02:30pm 26.3 25.6 20.2 69 4.0 NE 24 30 13 16 - - 0.0
26/02:00pm 26.0 23.0 19.9 69 4.0 NE 35 39 19 21 - - 0.0
26/01:30pm 26.6 25.0 20.7 70 3.9 ENE 30 33 16 18 - - 0.0
26/01:00pm 27.7 26.4 19.8 62 5.1 ENE 26 32 14 17 - - 0.0
26/12:30pm 28.9 28.4 19.2 55 6.3 ENE 20 35 11 19 - - 0.0
26/12:19pm 29.2 29.0 16.7 46 7.8 ENE 13 26 7 14 - - 0.0
26/12:00pm 34.6 31.7 14.0 29 12.6 NW 22 39 12 21 - - 0.0
26/11:57am 34.8 30.8 15.2 31 12.2 NW 30 48 16 26 - - 0.0
26/11:30am 32.9 27.4 13.5 30 11.7 NW 35 50 19 27 - - 0.0
26/11:00am 32.7 26.7 14.3 32 11.2 NW 39 54 21 29 - - 0.0
26/10:30am 31.6 27.1 15.5 37 10.0 NW 33 54 18 29 - - 0.0
26/10:28am 31.6 26.8 15.5 37 10.0 NW 35 54 19 29 - - 0.0
26/10:00am 31.0 25.2 15.0 38 9.8 NW 39 52 21 28 - - 0.0
26/09:30am 29.8 26.6 16.2 43 8.5 NW 28 43 15 23 - - 0.0
26/09:00am 26.9 27.6 17.9 57 5.7 NNE 11 17 6 9 - - 0.0
26/08:30am 24.7 27.2 18.2 67 4.1 NE 2 7 1 4 - - 0.0
26/08:00am 23.9 27.3 20.2 80 2.4 NE 2 7 1 4 - - 0.0
26/07:30am 22.4 24.0 19.9 86 1.6 NE 11 17 6 9 - - 0.0
26/07:00am 21.8 23.0 19.9 89 1.2 NE 13 19 7 10 - - 0.0
26/06:30am 21.5 22.7 19.8 90 1.1 NNE 13 19 7 10 - - 0.0
26/06:00am 21.3 23.8 19.8 91 1.0 N 6 9 3 5 - - 0.0
26/05:30am 21.3 22.1 19.8 91 1.0 NNE 15 19 8 10 - - 0.0
26/05:00am 21.4 22.5 19.7 90 1.1 NNE 13 15 7 8 - - 0.0
26/04:30am 21.4 22.1 19.7 90 1.1 NE 15 20 8 11 - - 0.0
26/04:00am 21.4 22.5 19.7 90 1.1 NE 13 15 7 8 - - 0.0
26/03:30am 21.6 23.1 19.7 89 1.2 NNE 11 17 6 9 - - 0.0
26/03:00am 21.4 22.9 19.7 90 1.1 N 11 15 6 8 - - 0.0
26/02:30am 21.4 23.7 19.5 89 1.2 N 6 9 3 5 - - 0.0
26/02:00am 21.5 23.9 19.6 89 1.2 N 6 9 3 5 - - 0.0
26/01:30am 21.6 22.8 19.9 90 1.1 NNE 13 17 7 9 - - 0.0
26/01:00am 21.6 22.7 19.7 89 1.2 N 13 17 7 9 - - 0.0
26/12:30am 21.8 23.3 19.7 88 1.3 N 11 15 6 8 - - 0.0
26/12:00am 21.8 22.6 19.9 89 1.2 NNE 15 20 8 11 - - 0.0
 
Date/Time
EDT
Temp
°C
App
Temp
°C
Dew
Point
°C
Rel
Hum
%
Delta-T
°C
Wind Press
QNH
hPa
Press
MSL
hPa
Rain since
9am
mm
Dir  Spd
km/h
Gust
km/h
Spd
kts
Gust
kts
25/11:30pm 21.9 23.1 20.0 89 1.2 NNE 13 17 7 9 - - 0.0
25/11:00pm 22.0 21.9 19.9 88 1.3 NE 20 24 11 13 - - 0.0
25/10:30pm 21.9 23.8 19.8 88 1.3 N 9 11 5 6 - - 0.0
25/10:00pm 22.0 22.3 19.7 87 1.5 NNE 17 20 9 11 - - 0.0
25/09:30pm 22.1 22.5 19.8 87 1.5 NNE 17 20 9 11 - - 0.0
25/09:00pm 22.1 21.8 19.6 86 1.6 NNE 20 24 11 13 - - 0.0
25/08:30pm 22.3 20.6 19.8 86 1.6 NE 28 33 15 18 - - 0.0
25/08:00pm 22.5 20.0 19.7 84 1.8 NE 32 39 17 21 - - 0.0
25/07:30pm 22.8 19.0 19.8 83 1.9 NE 39 44 21 24 - - 0.0
25/07:00pm 23.0 19.7 20.0 83 1.9 NE 37 44 20 24 - - 0.0
25/06:30pm 23.4 20.5 20.0 81 2.2 NE 35 44 19 24 - - 0.0
25/06:00pm 23.9 21.8 19.8 78 2.6 NE 30 41 16 22 - - 0.0
25/05:30pm 24.2 24.4 20.1 78 2.7 NNE 19 26 10 14 - - 0.0
25/05:00pm 24.5 24.0 20.0 76 2.9 NNE 22 30 12 16 - - 0.0
25/04:30pm 24.2 23.6 19.7 76 2.9 N 22 26 12 14 - - 0.0
25/04:00pm 24.2 24.0 19.7 76 2.9 N 20 24 11 13 - - 0.0
25/03:30pm 24.4 24.6 20.1 77 2.8 N 19 24 10 13 - - 0.0
25/03:00pm 24.7 24.8 20.4 77 2.8 NNE 20 26 11 14 - - 0.0
25/02:30pm 24.3 23.9 20.2 78 2.7 NNE 22 28 12 15 - - 0.0
25/02:00pm 24.6 24.3 20.3 77 2.8 NNE 22 28 12 15 - - 0.0
25/01:30pm 23.9 23.1 20.0 79 2.5 NNE 24 30 13 16 - - 0.0
25/01:00pm 24.5 24.4 20.0 76 2.9 NE 20 28 11 15 - - 0.0
25/12:30pm 24.7 24.4 20.4 77 2.8 NNE 22 30 12 16 - - 0.0
25/12:00pm 24.1 23.8 19.6 76 2.9 NNE 20 26 11 14 - - 0.0
25/11:30am 24.1 23.8 19.6 76 2.9 NNE 20 26 11 14 - - 0.0
25/11:00am 24.1 24.0 20.0 78 2.6 NNE 20 24 11 13 - - 0.0
25/10:30am 23.7 24.1 19.8 79 2.5 NNE 17 22 9 12 - - 0.0
25/10:00am 23.6 24.7 19.7 79 2.5 NNE 13 17 7 9 - - 0.0
25/09:30am 23.5 24.3 19.8 80 2.4 NNE 15 20 8 11 - - 0.0
25/09:00am 23.6 24.9 20.1 81 2.3 NNE 13 17 7 9 - - 0.0
25/08:30am 22.7 24.6 19.7 83 1.9 N 9 13 5 7 - - 0.0
25/08:00am 21.8 25.1 19.0 84 1.8 CALM 0 6 0 3 - - 0.0
25/07:30am 21.6 24.9 19.2 86 1.5 CALM 0 0 0 0 - - 0.0
25/07:00am 21.5 24.8 19.1 86 1.5 CALM 0 0 0 0 - - 0.0
25/06:30am 21.6 22.6 19.5 88 1.3 NNE 13 17 7 9 - - 0.0
25/06:00am 21.6 22.5 19.3 87 1.5 NE 13 15 7 8 - - 0.0
25/05:30am 21.5 23.5 19.2 87 1.5 NNE 7 9 4 5 - - 0.0
25/05:00am 21.6 23.3 19.3 87 1.5 NNE 9 11 5 6 - - 0.0
25/04:30am 21.7 22.7 19.4 87 1.5 NNE 13 17 7 9 - - 0.0
25/04:00am 21.8 22.8 19.5 87 1.5 NNE 13 15 7 8 - - 0.0
25/03:30am 21.9 23.7 19.5 86 1.5 N 9 13 5 7 - - 0.0
25/03:00am 22.0 23.4 19.5 86 1.6 NNE 11 15 6 8 - - 0.0
25/02:30am 22.1 23.1 19.5 85 1.7 NNE 13 17 7 9 - - 0.0
25/02:00am 22.3 23.2 19.3 83 1.9 NNE 13 17 7 9 - - 0.0
25/01:30am 22.7 22.5 19.3 81 2.2 NE 19 20 10 11 - - 0.0
25/01:00am 23.0 23.6 18.5 76 2.8 NNE 13 19 7 10 - - 0.0
25/12:30am 22.8 22.3 19.0 79 2.4 NE 20 24 11 13 - - 0.0
25/12:00am 22.7 22.1 18.9 79 2.4 NE 20 24 11 13 - - 0.0
 
Date/Time
EDT
Temp
°C
App
Temp
°C
Dew
Point
°C
Rel
Hum
%
Delta-T
°C
Wind Press
QNH
hPa
Press
MSL
hPa
Rain since
9am
mm
Dir  Spd
km/h
Gust
km/h
Spd
kts
Gust
kts
24/11:30pm 22.7 23.9 19.1 80 2.3 NNE 11 19 6 10 - - 0.0
24/11:00pm 22.8 22.5 19.2 80 2.3 NE 19 20 10 11 - - 0.0
24/10:30pm 22.8 23.1 18.8 78 2.5 N 15 20 8 11 - - 0.0
24/10:00pm 23.1 21.6 19.5 80 2.3 NE 26 32 14 17 - - 0.0
24/09:30pm 23.5 21.2 17.7 70 3.6 NE 26 32 14 17 - - 0.0
24/09:00pm 23.9 21.9 16.4 63 4.6 NNE 22 30 12 16 - - 0.0
24/08:30pm 24.5 22.3 16.0 59 5.2 NE 22 32 12 17 - - 0.0
24/08:00pm 24.4 22.6 16.9 63 4.6 ENE 22 32 12 17 - - 0.0
24/07:30pm 24.2 20.9 17.9 68 3.9 NE 32 37 17 20 - - 0.0
24/07:00pm 24.2 21.6 18.6 71 3.5 NE 30 37 16 20 - - 0.0
24/06:30pm 24.2 22.4 18.8 72 3.4 NE 26 32 14 17 - - 0.0
24/06:00pm 24.5 23.3 17.5 65 4.4 NNW 20 28 11 15 - - 0.0
24/05:30pm 24.3 24.1 18.5 70 3.7 N 17 24 9 13 - - 0.0
24/05:00pm 24.4 22.2 18.6 70 3.7 NNE 28 39 15 21 - - 0.0
24/04:30pm 24.6 23.9 19.4 73 3.3 N 22 28 12 15 - - 0.0
24/04:00pm 25.0 24.3 19.6 72 3.5 NNE 22 32 12 17 - - 0.0
24/03:30pm 25.8 25.3 19.9 70 3.8 NNE 22 32 12 17 - - 0.0
24/03:14pm 25.3 23.2 19.0 68 4.0 NNE 28 37 15 20 - - 0.0
24/03:00pm 25.7 27.0 19.3 67 4.1 ESE 11 19 6 10 - - 0.0
24/02:30pm 24.4 25.1 19.7 75 3.0 NNW 15 22 8 12 - - 0.0
24/02:00pm 25.5 26.1 20.3 73 3.4 N 17 24 9 13 - - 0.0
24/01:30pm 25.5 26.6 20.5 74 3.3 N 15 24 8 13 - - 0.0
24/01:00pm 25.5 25.9 20.7 75 3.1 N 19 24 10 13 - - 0.0
24/12:30pm 25.2 25.8 20.2 74 3.3 N 17 22 9 12 - - 0.0
24/12:00pm 25.3 27.5 21.2 78 2.7 N 11 15 6 8 - - 0.0
24/11:30am 25.4 24.7 21.1 77 2.8 NE 26 30 14 16 - - 0.0
24/11:00am 25.2 24.5 21.1 78 2.7 NE 26 30 14 16 - - 0.0
24/10:30am 25.2 24.6 21.3 79 2.6 NE 26 30 14 16 - - 0.0
24/10:00am 25.3 25.8 21.2 78 2.7 ENE 20 24 11 13 - - 0.0
24/09:30am 24.7 25.7 21.0 80 2.4 ENE 17 19 9 10 - - 0.0
24/09:00am 24.4 26.6 21.1 82 2.2 ENE 11 15 6 8 - - 0.0
24/08:30am 24.3 25.6 20.8 81 2.3 NE 15 19 8 10 - - 0.0
24/08:00am 23.5 25.5 20.8 85 1.8 NE 11 17 6 9 - - 0.0
24/07:30am 23.3 26.5 21.2 88 1.4 N 6 9 3 5 - - 0.0
24/07:00am 22.3 24.5 20.4 89 1.2 NNW 9 9 5 5 - - 0.0
24/06:30am 21.8 24.3 19.9 89 1.2 NNW 6 7 3 4 - - 0.0
24/06:00am 21.8 24.2 19.7 88 1.3 NNW 6 9 3 5 - - 0.0
24/05:30am 22.0 24.3 19.9 88 1.3 WNW 7 9 4 5 - - 0.0
24/05:00am 22.3 26.1 20.2 88 1.4 CALM 0 0 0 0 - - 0.0
24/04:30am 22.8 26.9 20.7 88 1.4 CALM 0 0 0 0 - - 0.0
24/04:00am 22.9 27.0 20.8 88 1.4 CALM 0 0 0 0 - - 0.0
24/03:42am 22.8 26.9 20.7 88 1.4 CALM 0 0 0 0 - - 0.0
24/03:30am 22.9 27.1 21.0 89 1.2 CALM 0 0 0 0 - - 0.0
24/03:05am 23.0 26.2 21.3 90 1.1 SW 6 7 3 4 - - 0.0
24/03:00am 23.1 26.4 21.4 90 1.1 SW 6 9 3 5 - - 0.0
24/02:38am 23.0 26.2 21.3 90 1.1 SSW 6 7 3 4 - - 0.0
24/02:30am 22.9 26.1 21.2 90 1.1 SSW 6 9 3 5 - - 0.0
24/02:00am 23.0 26.0 21.3 90 1.1 SW 7 9 4 5 - - 0.0
24/01:30am 22.9 25.9 21.2 90 1.1 SW 7 9 4 5 - - 0.0
24/01:19am 22.8 25.7 21.1 90 1.1 SW 7 9 4 5 - - 0.0
24/01:00am 22.5 25.3 20.8 90 1.1 SW 7 9 4 5 - - 0.0
24/12:30am 22.7 25.2 21.0 90 1.1 SSW 9 11 5 6 - - 0.0
24/12:00am 22.6 24.7 20.9 90 1.1 SSW 11 13 6 7 - - 0.0
 
Date/Time
EDT
Temp
°C
App
Temp
°C
Dew
Point
°C
Rel
Hum
%
Delta-T
°C
Wind Press
QNH
hPa
Press
MSL
hPa
Rain since
9am
mm
Dir  Spd
km/h
Gust
km/h
Spd
kts
Gust
kts
23/11:30pm 22.9 25.5 21.2 90 1.1 SW 9 11 5 6 - - 0.0
23/11:00pm 22.8 25.3 21.1 90 1.1 SW 9 11 5 6 - - 0.0
23/10:30pm 23.2 25.1 21.3 89 1.2 S 13 13 7 7 - - 0.0
23/10:00pm 23.3 25.0 21.6 90 1.1 S 15 17 8 9 - - 0.0
23/09:30pm 23.2 25.1 21.3 89 1.2 SSW 13 15 7 8 - - 0.0
23/09:00pm 23.4 25.3 21.3 88 1.4 SSW 13 15 7 8 - - 0.0
23/08:42pm 23.5 25.0 21.2 87 1.5 SSW 15 17 8 9 - - 0.0
23/08:30pm 23.7 25.5 21.2 86 1.6 S 13 15 7 8 - - 0.0

Other formats

Comma delimited format used in spreadsheet applications
http://www.bom.gov.au/fwo/IDN60801/IDN60801.94749.axf

JavaScript Object Notation format (JSON) in row-major order
http://www.bom.gov.au/fwo/IDN60801/IDN60801.94749.json

Data quality

Most of these data are generated automatically and are frequently updated. Quality checks on data are not normally performed. It is possible for incorrect values to appear. Refer to information at About Latest Weather Observations and please check the disclaimer before using these data.